createdAt,value
2022-12-04T00:01:09.963Z,101767.44
2022-12-04T00:03:36.786Z,101773.56
2022-12-04T00:06:30.340Z,101772.59
2022-12-04T00:08:56.903Z,101779.53
2022-12-04T00:11:26.477Z,101774.28
2022-12-04T00:13:53.120Z,101776.84
2022-12-04T00:16:22.671Z,101776.34
2022-12-04T00:18:50.873Z,101777.84
2022-12-04T00:21:19.368Z,101776.09
2022-12-04T00:23:46.494Z,101749.41
2022-12-04T00:26:16.441Z,101769.31
2022-12-04T00:28:43.705Z,101764.81
2022-12-04T00:31:18.378Z,101769.03
2022-12-04T00:33:45.540Z,101766.50
2022-12-04T00:36:14.390Z,101770.72
2022-12-04T00:38:42.968Z,101769.78
2022-12-04T00:41:11.194Z,101766.22
2022-12-04T00:43:37.603Z,101764.72
2022-12-04T00:46:04.285Z,101770.06
2022-12-04T00:48:30.782Z,101762.31
2022-12-04T00:51:12.215Z,101766.81
2022-12-04T00:53:39.291Z,101763.97
2022-12-04T00:56:07.831Z,101771.66
2022-12-04T00:58:34.340Z,101762.41
2022-12-04T01:01:15.546Z,101759.56
2022-12-04T01:03:42.470Z,101750.94
2022-12-04T01:06:25.064Z,101756.41
2022-12-04T01:08:52.939Z,101759.56
2022-12-04T01:11:21.259Z,101756.09
2022-12-04T01:13:47.787Z,101754.44
2022-12-04T01:16:18.112Z,101757.16
2022-12-04T01:18:44.940Z,101751.78
2022-12-04T01:21:12.532Z,101753.38
2022-12-04T01:23:38.935Z,101742.97
2022-12-04T01:26:05.535Z,101753.47
2022-12-04T01:28:32.049Z,101755.16
2022-12-04T01:31:05.951Z,101763.69
2022-12-04T01:33:34.595Z,101755.06
2022-12-04T01:36:02.812Z,101751.91
2022-12-04T01:38:29.851Z,101756.09
2022-12-04T01:40:57.374Z,101762.19
2022-12-04T01:43:25.065Z,101766.31
2022-12-04T01:45:57.560Z,101768.09
2022-12-04T01:48:34.787Z,101774.09
2022-12-04T01:51:18.554Z,101757.25
2022-12-04T01:54:00.613Z,101763.69
2022-12-04T01:56:41.392Z,101756.00
2022-12-04T01:59:09.237Z,101753.25
2022-12-04T02:01:53.621Z,101755.63
2022-12-04T02:04:20.544Z,101753.91
2022-12-04T02:06:47.009Z,101753.91
2022-12-04T02:09:13.707Z,101751.19
2022-12-04T02:11:53.165Z,101744.25
2022-12-04T02:14:46.913Z,101754.75
2022-12-04T02:17:33.017Z,101760.03
2022-12-04T02:20:17.653Z,101751.00
2022-12-04T02:23:19.292Z,101763.28
2022-12-04T02:26:01.533Z,101752.88
2022-12-04T02:28:32.149Z,101761.31
2022-12-04T02:31:02.344Z,101761.50
2022-12-04T02:33:35.970Z,101768.53
2022-12-04T02:36:13.770Z,101760.66
2022-12-04T02:38:45.156Z,101757.84
2022-12-04T02:41:25.237Z,101747.31
2022-12-04T02:43:56.296Z,101748.28
2022-12-04T02:46:37.407Z,101737.22
2022-12-04T02:49:09.408Z,101744.06
2022-12-04T02:51:40.107Z,101747.44
2022-12-04T02:54:16.794Z,101741.22
2022-12-04T02:56:47.431Z,101736.16
2022-12-04T02:59:23.177Z,101742.81
2022-12-04T03:01:55.789Z,101738.53
2022-12-04T03:04:25.882Z,101736.91
2022-12-04T03:07:06.804Z,101735.97
2022-12-04T03:09:39.002Z,101731.47
2022-12-04T03:12:19.262Z,101729.78
2022-12-04T03:14:56.174Z,101724.44
2022-12-04T03:17:47.648Z,101721.81
2022-12-04T03:20:15.295Z,101720.94
2022-12-04T03:22:46.486Z,101721.69
2022-12-04T03:25:13.900Z,101714.78
2022-12-04T03:27:43.312Z,101715.59
2022-12-04T03:30:18.757Z,101705.28
2022-12-04T03:32:51.829Z,101706.25
2022-12-04T03:35:47.654Z,101720.13
2022-12-04T03:38:23.898Z,101716.13
2022-12-04T03:41:04.596Z,101707.91
2022-12-04T03:43:56.627Z,101707.00
2022-12-04T03:47:01.031Z,101705.09
2022-12-04T03:49:53.691Z,101714.78
2022-12-04T03:52:33.650Z,101710.34
2022-12-04T03:55:23.833Z,101709.41
2022-12-04T03:57:52.679Z,101698.91
2022-12-04T04:00:22.234Z,101705.84
2022-12-04T04:02:54.436Z,101698.91
2022-12-04T04:05:22.598Z,101698.06
2022-12-04T04:08:18.116Z,101695.53
2022-12-04T04:10:45.505Z,101709.41
2022-12-04T04:13:35.590Z,101700.59
2022-12-04T04:16:25.408Z,101696.19
2022-12-04T04:19:12.743Z,101703.09
2022-12-04T04:22:00.161Z,101689.44
2022-12-04T04:24:31.025Z,101697.97
2022-12-04T04:26:59.445Z,101694.41
2022-12-04T04:29:26.268Z,101699.75
2022-12-04T04:32:15.105Z,101697.97
2022-12-04T04:34:49.090Z,101695.13
2022-12-04T04:37:39.575Z,101691.78
2022-12-04T04:40:33.853Z,101690.94
2022-12-04T04:43:09.544Z,101688.50
2022-12-04T04:45:45.774Z,101693.66
2022-12-04T04:48:20.267Z,101701.44
2022-12-04T04:50:47.228Z,101697.97
2022-12-04T04:53:18.723Z,101696.06
2022-12-04T04:55:45.682Z,101695.22
2022-12-04T04:58:15.528Z,101708.34
2022-12-04T05:00:57.923Z,101709.41
2022-12-04T05:03:24.962Z,101705.72
2022-12-04T05:05:51.635Z,101708.47
2022-12-04T05:08:18.110Z,101699.75
2022-12-04T05:10:44.611Z,101703.75
2022-12-04T05:13:14.866Z,101709.84
2022-12-04T05:15:41.615Z,101712.69
2022-12-04T05:18:08.958Z,101709.22
2022-12-04T05:20:38.741Z,101705.63
2022-12-04T05:23:05.177Z,101704.06
2022-12-04T05:25:31.610Z,101701.44
2022-12-04T05:27:58.281Z,101703.09
2022-12-04T05:30:24.716Z,101715.22
2022-12-04T05:32:51.234Z,101717.72
2022-12-04T05:35:17.651Z,101713.31
2022-12-04T05:37:45.600Z,101719.41
2022-12-04T05:40:12.322Z,101722.13
2022-12-04T05:42:38.829Z,101716.78
2022-12-04T05:45:05.701Z,101721.84
2022-12-04T05:47:32.094Z,101720.03
2022-12-04T05:49:58.629Z,101718.28
2022-12-04T05:52:25.182Z,101717.22
2022-12-04T05:54:52.653Z,101728.78
2022-12-04T05:57:19.075Z,101720.91
2022-12-04T05:59:45.532Z,101719.22
2022-12-04T06:02:11.995Z,101725.41
2022-12-04T06:04:38.540Z,101724.56
2022-12-04T06:07:05.299Z,101724.88
2022-12-04T06:09:31.727Z,101726.03
2022-12-04T06:11:58.918Z,101735.06
2022-12-04T06:14:25.902Z,101732.44
2022-12-04T06:16:52.573Z,101734.88
2022-12-04T06:19:22.445Z,101732.38
2022-12-04T06:21:51.515Z,101724.38
2022-12-04T06:24:21.650Z,101725.41
2022-12-04T06:27:18.725Z,101726.25
2022-12-04T06:29:35.645Z,101730.97
2022-12-04T06:32:02.338Z,101716.78
2022-12-04T06:34:29.009Z,101722.03
2022-12-04T06:36:55.452Z,101723.63
2022-12-04T06:39:21.969Z,101731.63
2022-12-04T06:41:48.455Z,101730.66
2022-12-04T06:44:16.140Z,101728.13
2022-12-04T06:46:46.923Z,101731.72
2022-12-04T06:49:14.270Z,101718.59
2022-12-04T06:51:41.817Z,101726.63
2022-12-04T06:54:09.722Z,101724.66
2022-12-04T06:56:36.186Z,101714.25
2022-12-04T06:59:04.162Z,101723.63
2022-12-04T07:01:32.850Z,101721.09
2022-12-04T07:04:00.986Z,101717.53
2022-12-04T07:06:30.306Z,101724.38
2022-12-04T07:09:17.683Z,101722.56
2022-12-04T07:11:45.229Z,101726.16
2022-12-04T07:14:13.007Z,101723.41
2022-12-04T07:16:41.986Z,101725.19
2022-12-04T07:19:10.737Z,101726.16
2022-12-04T07:21:37.221Z,101725.19
2022-12-04T07:24:04.156Z,101702.28
2022-12-04T07:26:31.346Z,101716.38
2022-12-04T07:29:00.364Z,101723.97
2022-12-04T07:31:28.901Z,101724.69
2022-12-04T07:33:56.165Z,101727.44
2022-12-04T07:36:24.041Z,101726.47
2022-12-04T07:38:51.307Z,101734.38
2022-12-04T07:41:20.544Z,101732.59
2022-12-04T07:43:47.319Z,101736.13
2022-12-04T07:46:17.230Z,101729.84
2022-12-04T07:48:44.141Z,101730.81
2022-12-04T07:51:15.942Z,101740.34
2022-12-04T07:53:43.556Z,101733.44
2022-12-04T07:56:11.485Z,101735.97
2022-12-04T07:58:38.284Z,101729.00
2022-12-04T08:01:10.861Z,101738.47
2022-12-04T08:03:42.101Z,101734.25
2022-12-04T08:06:12.286Z,101740.34
2022-12-04T08:08:38.732Z,101736.78
2022-12-04T08:11:07.619Z,101735.09
2022-12-04T08:13:34.490Z,101747.22
2022-12-04T08:16:05.043Z,101747.22
2022-12-04T08:18:32.271Z,101750.66
2022-12-04T08:21:16.335Z,101744.66
2022-12-04T08:23:44.300Z,101749.00
2022-12-04T08:26:11.604Z,101738.69
2022-12-04T08:28:40.599Z,101743.63
2022-12-04T08:31:12.867Z,101755.00
2022-12-04T08:33:39.644Z,101765.59
2022-12-04T08:36:08.103Z,101767.06
2022-12-04T08:38:34.822Z,101762.03
2022-12-04T08:41:07.032Z,101754.03
2022-12-04T08:43:33.629Z,101755.63
2022-12-04T08:46:06.148Z,101770.44
2022-12-04T08:48:33.612Z,101769.69
2022-12-04T08:51:01.061Z,101776.56
2022-12-04T08:53:27.505Z,101771.47
2022-12-04T08:55:55.008Z,101768.97
2022-12-04T08:58:22.019Z,101779.28
2022-12-04T09:00:48.686Z,101769.50
2022-12-04T09:03:17.582Z,101787.88
2022-12-04T09:05:45.964Z,101783.47
2022-12-04T09:08:17.616Z,101791.25
2022-12-04T09:10:44.485Z,101785.38
2022-12-04T09:13:10.894Z,101790.41
2022-12-04T09:15:41.008Z,101785.16
2022-12-04T09:18:07.982Z,101787.88
2022-12-04T09:20:34.583Z,101791.25
2022-12-04T09:23:04.379Z,101783.47
2022-12-04T09:25:34.656Z,101787.06
2022-12-04T09:28:01.170Z,101787.06
2022-12-04T09:30:27.588Z,101789.69
2022-12-04T09:32:54.059Z,101797.38
2022-12-04T09:35:20.484Z,101797.28
2022-12-04T09:37:46.913Z,101791.91
2022-12-04T09:40:37.158Z,101792.88
2022-12-04T09:43:16.378Z,101797.16
2022-12-04T09:45:49.440Z,101789.59
2022-12-04T09:48:18.026Z,101797.38
2022-12-04T09:50:48.635Z,101795.38
2022-12-04T09:53:34.679Z,101795.28
2022-12-04T09:56:06.512Z,101788.25
2022-12-04T09:58:41.779Z,101790.94
2022-12-04T10:01:22.048Z,101791.69
2022-12-04T10:03:49.142Z,101775.72
2022-12-04T10:06:31.061Z,101775.09
2022-12-04T10:09:06.286Z,101766.56
2022-12-04T10:11:48.224Z,101780.44
2022-12-04T10:14:28.379Z,101776.88
2022-12-04T10:17:13.521Z,101780.25
2022-12-04T10:20:11.622Z,101777.63
2022-12-04T10:23:25.810Z,101777.31
2022-12-04T10:25:54.869Z,101776.56
2022-12-04T10:28:27.131Z,101774.69
2022-12-04T10:30:57.845Z,101771.94
2022-12-04T10:33:37.534Z,101774.91
2022-12-04T10:36:06.003Z,101774.16
2022-12-04T10:38:55.570Z,101775.00
2022-12-04T10:41:31.174Z,101769.53
2022-12-04T10:43:57.584Z,101761.75
2022-12-04T10:46:27.652Z,101761.97
2022-12-04T10:49:01.370Z,101757.63
2022-12-04T10:51:32.179Z,101757.63
2022-12-04T10:53:59.883Z,101763.53
2022-12-04T10:56:26.773Z,101762.03
2022-12-04T10:58:59.031Z,101758.38
2022-12-04T11:01:26.633Z,101748.91
2022-12-04T11:04:02.051Z,101760.78
2022-12-04T11:06:29.658Z,101756.59
2022-12-04T11:08:57.335Z,101753.13
2022-12-04T11:11:33.164Z,101751.44
2022-12-04T11:14:13.470Z,101751.34
2022-12-04T11:16:46.342Z,101742.72
2022-12-04T11:19:20.077Z,101753.88
2022-12-04T11:21:47.004Z,101746.09
2022-12-04T11:24:22.479Z,101728.59
2022-12-04T11:26:49.568Z,101739.97
2022-12-04T11:29:18.669Z,101725.16
2022-12-04T11:31:53.116Z,101719.16
2022-12-04T11:34:22.427Z,101719.78
2022-12-04T11:36:56.388Z,101719.06
2022-12-04T11:39:40.369Z,101724.41
2022-12-04T11:42:19.557Z,101730.72
2022-12-04T11:44:55.373Z,101721.69
2022-12-04T11:47:26.016Z,101727.03
2022-12-04T11:50:24.923Z,101727.03
2022-12-04T11:53:05.397Z,101722.06
2022-12-04T11:55:42.723Z,101709.25
2022-12-04T11:58:27.713Z,101728.06
2022-12-04T12:01:13.945Z,101725.66
2022-12-04T12:04:07.643Z,101725.66
2022-12-04T12:06:56.588Z,101711.56
2022-12-04T12:09:24.159Z,101721.78
2022-12-04T12:12:02.675Z,101717.56
2022-12-04T12:15:00.527Z,101716.09
2022-12-04T12:17:30.142Z,101718.53
2022-12-04T12:20:19.858Z,101722.19
2022-12-04T12:23:02.266Z,101712.63
2022-12-04T12:25:52.141Z,101718.53
2022-12-04T12:28:25.076Z,101715.16
2022-12-04T12:31:05.954Z,101712.00
2022-12-04T12:34:11.156Z,101712.72
2022-12-04T12:36:47.341Z,101707.47
2022-12-04T12:39:25.157Z,101700.63
2022-12-04T12:41:55.332Z,101702.22
2022-12-04T12:44:30.238Z,101712.84
2022-12-04T12:47:08.086Z,101702.31
2022-12-04T12:49:50.075Z,101690.13
2022-12-04T12:52:34.347Z,101704.00
2022-12-04T12:55:16.096Z,101689.94
2022-12-04T12:57:47.991Z,101690.66
2022-12-04T13:00:21.536Z,101694.03
2022-12-04T13:03:05.080Z,101687.09
2022-12-04T13:05:38.083Z,101686.34
2022-12-04T13:08:25.029Z,101691.28
2022-12-04T13:11:06.754Z,101685.09
2022-12-04T13:13:38.927Z,101687.91
2022-12-04T13:16:14.866Z,101688.00
2022-12-04T13:19:12.302Z,101685.50
2022-12-04T13:22:26.598Z,101687.09
2022-12-04T13:25:04.748Z,101684.25
2022-12-04T13:28:19.273Z,101677.00
2022-12-04T13:30:56.472Z,101675.09
2022-12-04T13:33:37.997Z,101674.91
2022-12-04T13:36:14.785Z,101673.41
2022-12-04T13:38:58.072Z,101679.63
2022-12-04T13:41:27.237Z,101669.97
2022-12-04T13:43:55.499Z,101669.13
2022-12-04T13:46:42.310Z,101673.31
2022-12-04T13:49:17.923Z,101668.03
2022-12-04T13:51:52.162Z,101669.75
2022-12-04T13:54:35.917Z,101675.00
2022-12-04T13:57:22.623Z,101673.19
2022-12-04T13:59:49.737Z,101669.63
2022-12-04T14:02:27.464Z,101668.78
2022-12-04T14:04:57.568Z,101658.59
2022-12-04T14:07:28.948Z,101662.06
2022-12-04T14:09:58.580Z,101669.53
2022-12-04T14:12:32.026Z,101664.38
2022-12-04T14:15:03.052Z,101665.31
2022-12-04T14:17:33.475Z,101654.09
2022-12-04T14:20:07.558Z,101665.22
2022-12-04T14:22:35.567Z,101660.69
2022-12-04T14:25:12.415Z,101671.13
2022-12-04T14:27:41.863Z,101664.78
2022-12-04T14:30:29.675Z,101661.31
2022-12-04T14:33:09.114Z,101654.59
2022-12-04T14:35:45.080Z,101664.78
2022-12-04T14:38:19.380Z,101648.81
2022-12-04T14:40:49.800Z,101662.06
2022-12-04T14:43:22.512Z,101670.47
2022-12-04T14:45:58.193Z,101668.06
2022-12-04T14:48:40.177Z,101679.84
2022-12-04T14:51:30.560Z,101675.41
2022-12-04T14:54:25.402Z,101673.72
2022-12-04T14:57:17.302Z,101684.13
2022-12-04T14:59:47.110Z,101681.63
2022-12-04T15:02:19.608Z,101685.91
2022-12-04T15:04:47.988Z,101684.25
2022-12-04T15:07:23.971Z,101675.50
2022-12-04T15:10:14.519Z,101678.13
2022-12-04T15:12:52.388Z,101681.50
2022-12-04T15:15:28.108Z,101672.69
2022-12-04T15:18:02.497Z,101685.72
2022-12-04T15:20:50.027Z,101689.06
2022-12-04T15:23:21.519Z,101681.41
2022-12-04T15:25:54.932Z,101681.91
2022-12-04T15:28:28.975Z,101675.09
2022-12-04T15:30:58.037Z,101692.44
2022-12-04T15:33:28.936Z,101690.56
2022-12-04T15:36:02.800Z,101688.03
2022-12-04T15:38:29.614Z,101687.91
2022-12-04T15:40:59.159Z,101687.81
2022-12-04T15:43:41.208Z,101694.78
2022-12-04T15:46:21.043Z,101699.06
2022-12-04T15:48:48.092Z,101691.28
2022-12-04T15:51:20.246Z,101684.97
2022-12-04T15:53:47.813Z,101691.91
2022-12-04T15:56:19.610Z,101691.19
2022-12-04T15:58:54.737Z,101693.59
2022-12-04T16:01:22.018Z,101684.25
2022-12-04T16:03:53.977Z,101684.13
2022-12-04T16:06:31.231Z,101696.22
2022-12-04T16:09:21.847Z,101701.25
2022-12-04T16:11:58.154Z,101707.38
2022-12-04T16:14:24.575Z,101709.16
2022-12-04T16:16:52.847Z,101707.25
2022-12-04T16:19:30.268Z,101714.13
2022-12-04T16:21:57.701Z,101710.41
2022-12-04T16:24:24.564Z,101713.16
2022-12-04T16:26:52.637Z,101722.53
2022-12-04T16:29:19.165Z,101720.75
2022-12-04T16:31:45.918Z,101719.03
2022-12-04T16:34:13.777Z,101726.72
2022-12-04T16:36:40.530Z,101730.94
2022-12-04T16:39:07.051Z,101728.19
2022-12-04T16:41:33.654Z,101721.97
2022-12-04T16:44:00.752Z,101722.72
2022-12-04T16:46:28.903Z,101722.81
2022-12-04T16:48:55.962Z,101729.47
2022-12-04T16:51:25.581Z,101726.19
2022-12-04T16:53:53.099Z,101725.00
2022-12-04T16:56:20.286Z,101726.72
2022-12-04T16:58:47.009Z,101725.13
2022-12-04T17:01:25.716Z,101724.19
2022-12-04T17:03:52.754Z,101724.09
2022-12-04T17:06:19.625Z,101731.03
2022-12-04T17:08:46.347Z,101725.66
2022-12-04T17:11:14.489Z,101725.53
2022-12-04T17:13:41.930Z,101722.91
2022-12-04T17:16:09.061Z,101722.72
2022-12-04T17:18:35.533Z,101715.56
2022-12-04T17:21:09.536Z,101726.66
2022-12-04T17:23:36.523Z,101716.16
2022-12-04T17:26:04.636Z,101725.63
2022-12-04T17:28:31.373Z,101723.00
2022-12-04T17:30:58.187Z,101720.38
2022-12-04T17:33:25.641Z,101718.59
2022-12-04T17:35:54.042Z,101728.16
2022-12-04T17:38:20.584Z,101711.41
2022-12-04T17:41:01.440Z,101711.91
2022-12-04T17:43:29.539Z,101720.53
2022-12-04T17:45:56.241Z,101718.75
2022-12-04T17:48:23.298Z,101724.88
2022-12-04T17:50:49.898Z,101735.19
2022-12-04T17:53:16.651Z,101726.31
2022-12-04T17:55:43.090Z,101729.81
2022-12-04T17:58:09.563Z,101725.38
2022-12-04T18:00:36.829Z,101720.13
2022-12-04T18:03:03.420Z,101725.38
2022-12-04T18:05:31.974Z,101721.78
2022-12-04T18:07:59.343Z,101725.28
2022-12-04T18:10:25.810Z,101726.00
2022-12-04T18:12:52.283Z,101722.41
2022-12-04T18:15:18.693Z,101722.41
2022-12-04T18:17:45.506Z,101729.34
2022-12-04T18:20:12.280Z,101727.56
2022-12-04T18:22:38.726Z,101734.19
2022-12-04T18:25:07.331Z,101730.59
2022-12-04T18:27:36.711Z,101732.59
2022-12-04T18:30:07.490Z,101727.16
2022-12-04T18:32:34.049Z,101714.97
2022-12-04T18:35:00.460Z,101733.97
2022-12-04T18:37:27.000Z,101719.44
2022-12-04T18:39:53.590Z,101733.63
2022-12-04T18:42:20.273Z,101732.69
2022-12-04T18:44:47.071Z,101740.47
2022-12-04T18:47:13.513Z,101737.63
2022-12-04T18:49:39.990Z,101740.97
2022-12-04T18:52:06.504Z,101747.81
2022-12-04T18:54:33.015Z,101744.25
2022-12-04T18:56:59.452Z,101751.19
2022-12-04T18:59:27.013Z,101749.50
2022-12-04T19:01:54.052Z,101751.19
2022-12-04T19:04:23.149Z,101743.28
2022-12-04T19:06:53.338Z,101751.91
2022-12-04T19:09:40.978Z,101744.00
2022-12-04T19:12:10.297Z,101755.41
2022-12-04T19:14:38.569Z,101762.34
2022-12-04T19:17:05.158Z,101764.97
2022-12-04T19:19:32.055Z,101760.56
2022-12-04T19:21:59.181Z,101761.47
2022-12-04T19:24:25.629Z,101768.44
2022-12-04T19:26:54.183Z,101760.56
2022-12-04T19:29:20.618Z,101767.38
2022-12-04T19:31:47.234Z,101769.38
2022-12-04T19:34:13.718Z,101770.25
2022-12-04T19:36:41.171Z,101768.69
2022-12-04T19:39:07.659Z,101766.25
2022-12-04T19:41:35.275Z,101769.38
2022-12-04T19:44:07.845Z,101778.47
2022-12-04T19:46:41.681Z,101775.63
2022-12-04T19:49:08.242Z,101776.69
2022-12-04T19:51:38.052Z,101775.84
2022-12-04T19:54:05.464Z,101781.84
2022-12-04T19:56:33.268Z,101784.38
2022-12-04T19:59:03.153Z,101764.91
2022-12-04T20:01:32.274Z,101775.84
2022-12-04T20:04:00.303Z,101782.56
2022-12-04T20:06:28.373Z,101774.56
2022-12-04T20:08:57.632Z,101785.69
2022-12-04T20:11:24.720Z,101785.00
2022-12-04T20:13:55.487Z,101789.06
2022-12-04T20:16:24.315Z,101783.81
2022-12-04T20:18:51.118Z,101788.13
2022-12-04T20:21:18.565Z,101770.13
2022-12-04T20:23:49.367Z,101781.91
2022-12-04T20:26:19.624Z,101782.63
2022-12-04T20:28:46.630Z,101787.91
2022-12-04T20:31:26.748Z,101790.19
2022-12-04T20:33:55.305Z,101785.78
2022-12-04T20:36:23.884Z,101776.09
2022-12-04T20:38:53.098Z,101781.25
2022-12-04T20:41:20.258Z,101772.38
2022-12-04T20:43:47.854Z,101776.47
2022-12-04T20:46:21.631Z,101784.28
2022-12-04T20:48:49.394Z,101784.28
2022-12-04T20:51:21.215Z,101782.25
2022-12-04T20:53:49.701Z,101785.63
2022-12-04T20:56:17.114Z,101781.06
2022-12-04T20:58:43.545Z,101786.22
2022-12-04T21:01:17.164Z,101785.16
2022-12-04T21:03:45.592Z,101785.03
2022-12-04T21:06:27.294Z,101787.56
2022-12-04T21:09:01.944Z,101788.28
2022-12-04T21:11:37.935Z,101785.41
2022-12-04T21:14:27.127Z,101788.78
2022-12-04T21:16:53.548Z,101783.41
2022-12-04T21:19:21.498Z,101784.25
2022-12-04T21:21:48.690Z,101782.22
2022-12-04T21:24:17.267Z,101785.59
2022-12-04T21:26:43.795Z,101779.47
2022-12-04T21:29:10.755Z,101777.56
2022-12-04T21:31:38.129Z,101779.97
2022-12-04T21:34:06.846Z,101778.88
2022-12-04T21:36:33.771Z,101775.06
2022-12-04T21:39:00.526Z,101781.09
2022-12-04T21:41:46.055Z,101777.34
2022-12-04T21:44:18.075Z,101780.97
2022-12-04T21:46:45.519Z,101777.16
2022-12-04T21:49:13.625Z,101783.34
2022-12-04T21:51:56.656Z,101781.69
2022-12-04T21:54:23.576Z,101781.22
2022-12-04T21:56:50.036Z,101787.47
2022-12-04T21:59:16.539Z,101780.16
2022-12-04T22:01:43.153Z,101774.75
2022-12-04T22:04:09.636Z,101784.34
2022-12-04T22:06:36.219Z,101782.78
2022-12-04T22:09:05.734Z,101783.84
2022-12-04T22:11:32.299Z,101777.72
2022-12-04T22:13:58.795Z,101780.03
2022-12-04T22:16:30.249Z,101779.81
2022-12-04T22:19:00.093Z,101793.59
2022-12-04T22:21:27.887Z,101779.44
2022-12-04T22:23:59.924Z,101779.31
2022-12-04T22:26:27.832Z,101775.88
2022-12-04T22:28:55.078Z,101773.84
2022-12-04T22:31:23.523Z,101783.66
2022-12-04T22:33:52.922Z,101779.81
2022-12-04T22:36:22.853Z,101779.72
2022-12-04T22:41:36.026Z,101783.19
2022-12-04T22:44:02.504Z,101779.47
2022-12-04T22:46:29.199Z,101788.13
2022-12-04T22:48:55.753Z,101783.66
2022-12-04T22:51:22.848Z,101783.66
2022-12-04T22:53:52.050Z,101784.50
2022-12-04T22:56:30.057Z,101774.56
2022-12-04T22:58:58.015Z,101771.94
2022-12-04T23:01:30.621Z,101779.59
2022-12-04T23:03:57.438Z,101775.78
2022-12-04T23:06:25.938Z,101772.03
2022-12-04T23:08:57.533Z,101773.88
2022-12-04T23:11:25.375Z,101778.91
2022-12-04T23:13:54.142Z,101772.78
2022-12-04T23:16:22.420Z,101779.72
2022-12-04T23:18:49.578Z,101774.44
2022-12-04T23:21:17.642Z,101768.34
2022-12-04T23:23:45.865Z,101765.59
2022-12-04T23:26:15.451Z,101768.94
2022-12-04T23:28:42.544Z,101766.91
2022-12-04T23:31:10.153Z,101765.94
2022-12-04T23:33:36.881Z,101770.25
2022-12-04T23:36:05.013Z,101765.22
2022-12-04T23:38:31.616Z,101772.88
2022-12-04T23:41:06.749Z,101759.69
2022-12-04T23:43:33.912Z,101760.28
2022-12-04T23:46:02.532Z,101762.94
2022-12-04T23:48:32.540Z,101767.47
2022-12-04T23:50:59.167Z,101770.72
2022-12-04T23:53:25.949Z,101765.81
2022-12-04T23:56:02.376Z,101770.97
2022-12-04T23:58:28.803Z,101766.41
